首页
METAR-TAF:

METAR-TAF

机场 :

皮阿尔科国际机场

西班牙港, 特立尼达岛, 千里達及托巴哥

纬度: 10-37N, 经度: 061-21W, 海拔: 12米

当前天气观测

该预报发布于26分钟前的18:00 UTC
风速10节,风向东转东南
温度 30°C
湿度 66%
气压 1014 hPa
能见度10公里或以上
散云层高于1000英尺, 积雨云.
附近有雷暴

METAR: TTPP 061800Z 11010KT 9999 VCTS SCT010CB 30/23 Q1014 NOSIG RMK CB-W/SW/SE

时间: 14:26 (18:26 UTC)

预报

该预报发布于2小时和26分钟前的16:00 UTC
预报有效从06日的 18点(UTC)到 07日的 18点(UTC)
风速10节,风向东转东南
能见度10公里或以上
散云层高于2000英尺
几率 40% :
短暂存在
从 06日的 18点(UTC)到 06日的 21点(UTC)
能見度: 5000
少量云层高于1200英尺, 积雨云.
多云层高于1600英尺
阵雨
成为
从 06日的 23点(UTC)到 07日的 01点(UTC)
风速节,风向
能见度10公里或以上
少量云层高于1600英尺
短暂存在
从 07日的 07点(UTC)到 07日的 17点(UTC)
能見度: 3000
少量云层高于1200英尺, 积雨云.
多云层高于1600英尺
阵雨
成为
从 07日的 12点(UTC)到 07日的 14点(UTC)
风速14节,风向
散云层高于1800英尺

TAF: TTPP 061600Z 0618/0718 12010KT 9999 SCT020 PROB40 TEMPO 0618/0621 5000 SHRA FEW012CB BKN016 BECMG 0623/0701 00000KT 9999 FEW016 TEMPO 0707/0717 3000 SHRA FEW012CB BKN016 BECMG 0712/0714 10014KT SCT018

超过4000个机场的气象观测和天气预报(METAR&TAF报告)。

可查询的气象台以黄色和红色小点在地图上表示。

将鼠标移到小点上方,可查看气象台名称。

然后点击查看天气观测和预报。

如需切换地图:点击带黑十字的绿色按钮放大地图;点击带横线的绿色按钮缩小地图;或者点击绿色箭头查看邻近地区的地图。


METAR-TAF: